Time;durP1;ratioP1;P1;durP2;ratioP2;P2;SDS_P1;SDS_P2;PMS_P1;PMS_P2;Temp;Humidity;BMP_temperature;BMP_pressure;BME280_temperature;BME280_humidity;BME280_pressure;Samples;Min_cycle;Max_cycle;Signal;HPM_P1;HPM_P2
2022/12/04 00:01:52;;;;;;;2.33;1.20;;;1.10;98.10;;;;;;4957962;28;20226;-68
2022/12/04 00:04:17;;;;;;;3.13;1.00;;;1.20;98.00;;;;;;4957762;28;20175;-68
2022/12/04 00:06:43;;;;;;;1.80;1.33;;;1.20;97.60;;;;;;4957690;28;20194;-68
2022/12/04 00:09:09;;;;;;;5.30;1.70;;;1.20;97.70;;;;;;4957616;28;20206;-69
2022/12/04 00:11:35;;;;;;;1.70;1.60;;;1.10;97.80;;;;;;4957690;28;20165;-69
2022/12/04 00:14:01;;;;;;;0.30;0.30;;;1.10;98.00;;;;;;4957622;28;20541;-69
2022/12/04 00:16:28;;;;;;;0.30;0.30;;;1.00;98.20;;;;;;4957426;28;20247;-69
2022/12/04 00:18:54;;;;;;;0.57;0.57;;;1.10;98.10;;;;;;4957431;28;20519;-69
2022/12/04 00:21:21;;;;;;;0.82;0.60;;;1.00;98.10;;;;;;4957421;28;20178;-69
2022/12/04 00:23:47;;;;;;;1.20;1.10;;;0.90;98.10;;;;;;4957551;28;20253;-69
2022/12/04 00:26:18;;;;;;;3.87;3.67;;;0.80;98.20;;;;;;4957097;28;20265;-69
2022/12/04 00:28:45;;;;;;;1.00;0.98;;;0.80;98.40;;;;;;4957119;28;20439;-68
2022/12/04 00:31:17;;;;;;;0.70;0.68;;;0.90;98.20;;;;;;4957225;28;20579;-69
2022/12/04 00:33:43;;;;;;;0.40;0.40;;;0.90;98.00;;;;;;4957423;28;20525;-69
2022/12/04 00:36:11;;;;;;;0.65;0.65;;;0.80;98.10;;;;;;4956950;28;20709;-69
2022/12/04 00:38:37;;;;;;;1.33;0.80;;;0.70;98.60;;;;;;4957179;28;20178;-69
2022/12/04 00:41:03;;;;;;;0.50;0.50;;;0.70;98.50;;;;;;4956906;28;20177;-69
2022/12/04 00:43:30;;;;;;;0.40;0.40;;;0.80;98.50;;;;;;4957166;28;20658;-69
2022/12/04 00:45:56;;;;;;;0.30;0.30;;;0.80;98.40;;;;;;4956692;28;20420;-68
2022/12/04 00:48:23;;;;;;;0.70;0.70;;;0.80;98.30;;;;;;4956881;28;20181;-68
2022/12/04 00:50:49;;;;;;;1.13;0.63;;;0.80;98.10;;;;;;4956776;28;20280;-69
2022/12/04 00:53:14;;;;;;;0.40;0.40;;;0.70;98.10;;;;;;4956758;28;20235;-68
2022/12/04 00:55:42;;;;;;;0.50;0.50;;;0.60;98.40;;;;;;4955356;28;20496;-69
2022/12/04 00:58:09;;;;;;;1.42;0.95;;;0.60;98.70;;;;;;4956579;28;20538;-69
2022/12/04 01:00:37;;;;;;;0.40;0.40;;;0.50;98.90;;;;;;4956823;28;20177;-69
2022/12/04 01:03:03;;;;;;;0.82;0.82;;;0.40;98.90;;;;;;4955924;28;20201;-69
2022/12/04 01:05:29;;;;;;;2.47;1.50;;;0.40;99.10;;;;;;4956534;28;20185;-69
2022/12/04 01:07:55;;;;;;;0.60;0.60;;;0.50;99.10;;;;;;4956485;28;20204;-69
2022/12/04 01:10:20;;;;;;;0.30;0.30;;;0.60;98.80;;;;;;4956466;28;20332;-69
2022/12/04 01:12:50;;;;;;;0.30;0.30;;;0.60;98.60;;;;;;4956339;28;20264;-68
2022/12/04 01:15:16;;;;;;;0.57;0.57;;;0.60;98.50;;;;;;4956206;28;20176;-69
2022/12/04 01:17:44;;;;;;;0.95;0.88;;;0.70;98.30;;;;;;4956265;28;20195;-69
2022/12/04 01:20:11;;;;;;;0.55;0.55;;;0.70;98.30;;;;;;4956226;29;20182;-68
2022/12/04 01:22:37;;;;;;;0.30;0.30;;;0.70;98.30;;;;;;4956339;28;20186;-68
2022/12/04 01:25:03;;;;;;;0.60;0.60;;;0.70;98.20;;;;;;4956156;28;20181;-68
2022/12/04 01:27:28;;;;;;;0.47;0.47;;;0.70;98.20;;;;;;4955795;28;20244;-69
2022/12/04 01:29:54;;;;;;;0.30;0.30;;;0.70;98.20;;;;;;4956069;28;20568;-69
2022/12/04 01:32:20;;;;;;;0.80;0.80;;;0.70;98.20;;;;;;4954831;29;20174;-69
2022/12/04 01:34:45;;;;;;;0.40;0.40;;;0.60;98.20;;;;;;4955910;28;20174;-69
2022/12/04 01:37:11;;;;;;;0.60;0.60;;;0.70;98.20;;;;;;4955959;28;20561;-69
2022/12/04 01:39:37;;;;;;;0.40;0.40;;;0.70;97.80;;;;;;4956212;28;20177;-69
2022/12/04 01:42:03;;;;;;;2.27;2.17;;;0.70;97.90;;;;;;4955923;28;20210;-68
2022/12/04 01:44:30;;;;;;;0.30;0.30;;;0.70;98.20;;;;;;4955752;28;20174;-69
2022/12/04 01:47:00;;;;;;;2.05;1.00;;;0.60;97.90;;;;;;4954485;28;20213;-69
2022/12/04 01:49:52;;;;;;;0.45;0.45;;;0.60;98.00;;;;;;4956087;28;20202;-69
2022/12/04 01:52:21;;;;;;;0.93;0.93;;;0.80;98.20;;;;;;4955595;28;20585;-69
2022/12/04 01:54:53;;;;;;;0.50;0.50;;;0.70;98.10;;;;;;4955603;28;20181;-68
2022/12/04 01:57:21;;;;;;;0.40;0.40;;;0.70;98.10;;;;;;4955696;28;20221;-68
2022/12/04 01:59:52;;;;;;;0.77;0.77;;;0.80;98.00;;;;;;4956048;28;20509;-69
2022/12/04 02:02:34;;;;;;;0.77;0.77;;;0.80;97.90;;;;;;4955784;28;20270;-69
2022/12/04 02:05:02;;;;;;;0.30;0.30;;;0.80;98.00;;;;;;4955562;28;20583;-69
2022/12/04 02:07:28;;;;;;;0.30;0.30;;;0.80;97.90;;;;;;4955497;28;20190;-68
2022/12/04 02:09:54;;;;;;;1.33;1.23;;;0.80;97.90;;;;;;4955794;28;20206;-69
2022/12/04 02:12:34;;;;;;;0.30;0.30;;;0.80;97.50;;;;;;4955514;28;20406;-69
2022/12/04 02:15:14;;;;;;;1.67;1.58;;;0.80;97.20;;;;;;4955501;28;20236;-68
2022/12/04 02:17:58;;;;;;;0.80;0.70;;;0.90;97.10;;;;;;4955405;28;20193;-69
2022/12/04 02:20:24;;;;;;;0.70;0.70;;;0.80;97.10;;;;;;4955768;28;20704;-69
2022/12/04 02:23:04;;;;;;;0.40;0.40;;;0.80;97.30;;;;;;4955442;28;20304;-69
2022/12/04 02:25:29;;;;;;;1.02;0.60;;;0.80;97.60;;;;;;4955278;28;20228;-69
2022/12/04 02:28:03;;;;;;;1.03;1.03;;;0.70;97.80;;;;;;4955210;28;20746;-69
2022/12/04 02:30:32;;;;;;;0.30;0.30;;;0.70;98.00;;;;;;4955278;28;20206;-68
2022/12/04 02:33:13;;;;;;;0.60;0.60;;;0.60;97.90;;;;;;4955348;28;20170;-68
2022/12/04 02:35:44;;;;;;;0.65;0.65;;;0.50;97.70;;;;;;4955400;28;20202;-69
2022/12/04 02:38:17;;;;;;;0.40;0.40;;;0.50;98.00;;;;;;4955499;28;20570;-69
2022/12/04 02:41:00;;;;;;;0.30;0.30;;;0.50;98.30;;;;;;4955517;28;20178;-68
2022/12/04 02:43:31;;;;;;;0.55;0.55;;;0.60;98.30;;;;;;4955311;28;20169;-69
2022/12/04 02:46:05;;;;;;;0.82;0.82;;;0.70;97.60;;;;;;4955268;28;20611;-69
2022/12/04 02:48:35;;;;;;;0.57;0.57;;;0.70;97.50;;;;;;4955302;28;20209;-68
2022/12/04 02:51:03;;;;;;;0.30;0.30;;;0.60;97.70;;;;;;4955581;28;20201;-69
2022/12/04 02:53:33;;;;;;;1.98;1.85;;;0.60;97.90;;;;;;4955436;28;20166;-69
2022/12/04 02:56:07;;;;;;;0.95;0.95;;;0.70;98.10;;;;;;4955070;28;20224;-69
2022/12/04 02:58:55;;;;;;;1.35;1.25;;;0.70;98.10;;;;;;4953918;29;20163;-68
2022/12/04 03:01:27;;;;;;;1.20;1.20;;;0.60;98.00;;;;;;4955200;28;20208;-68
2022/12/04 03:04:06;;;;;;;1.45;1.45;;;0.70;98.10;;;;;;4955236;28;20175;-69
2022/12/04 03:06:35;;;;;;;0.40;0.40;;;0.80;98.00;;;;;;4954982;28;20195;-69
2022/12/04 03:09:16;;;;;;;0.30;0.30;;;0.80;98.10;;;;;;4953667;29;20643;-68
2022/12/04 03:11:48;;;;;;;0.40;0.40;;;1.00;98.10;;;;;;4955154;28;20186;-68
2022/12/04 03:14:22;;;;;;;0.40;0.40;;;1.10;97.50;;;;;;4954832;28;20185;-69
2022/12/04 03:16:54;;;;;;;0.40;0.40;;;1.10;97.20;;;;;;4955073;28;20202;-69
2022/12/04 03:19:24;;;;;;;0.30;0.30;;;1.10;97.10;;;;;;4954908;28;20287;-69
2022/12/04 03:21:55;;;;;;;0.50;0.50;;;1.00;97.20;;;;;;4954900;28;20547;-69
2022/12/04 03:24:29;;;;;;;0.40;0.40;;;0.90;97.50;;;;;;4954911;28;20183;-69
2022/12/04 03:27:34;;;;;;;3.75;0.82;;;1.00;97.80;;;;;;4956996;28;20714;-68
2022/12/04 03:30:09;;;;;;;0.30;0.30;;;1.00;97.70;;;;;;4957186;29;20202;-69
2022/12/04 03:32:42;;;;;;;0.30;0.30;;;1.00;97.90;;;;;;4958393;28;20260;-69
2022/12/04 03:35:26;;;;;;;1.20;1.17;;;1.00;97.80;;;;;;4958177;28;20294;-69
2022/12/04 03:38:06;;;;;;;0.40;0.40;;;1.10;97.80;;;;;;4958142;28;20190;-69
2022/12/04 03:40:44;;;;;;;0.52;0.52;;;1.10;97.50;;;;;;4958464;28;20222;-68
2022/12/04 03:43:47;;;;;;;1.02;1.02;;;1.20;97.40;;;;;;4958186;28;20542;-69
2022/12/04 03:46:35;;;;;;;0.55;0.55;;;1.20;97.30;;;;;;4957954;28;20189;-69
2022/12/04 03:49:17;;;;;;;2.83;2.63;;;1.20;97.40;;;;;;4957887;28;20545;-68
2022/12/04 03:52:06;;;;;;;1.13;1.08;;;1.20;97.30;;;;;;4957908;28;20181;-69
2022/12/04 03:54:36;;;;;;;0.40;0.40;;;1.20;97.60;;;;;;4957810;28;20170;-69
2022/12/04 03:57:11;;;;;;;0.30;0.30;;;1.20;97.70;;;;;;4958016;28;20205;-69
2022/12/04 03:59:42;;;;;;;0.40;0.40;;;1.20;97.60;;;;;;4957790;28;20182;-68
2022/12/04 04:02:15;;;;;;;0.40;0.40;;;1.30;97.80;;;;;;4957992;28;20233;-68
2022/12/04 04:04:43;;;;;;;0.30;0.30;;;1.30;97.60;;;;;;4957661;28;20226;-68
2022/12/04 04:07:41;;;;;;;1.15;0.63;;;1.30;97.50;;;;;;4957794;28;20289;-69
2022/12/04 04:10:13;;;;;;;6.72;0.85;;;1.30;97.50;;;;;;4937458;28;20217;-69
2022/12/04 04:24:35;;;;;;;0.68;0.68;;;1.50;97.80;;;;;;4957425;29;20726;-69
2022/12/04 04:27:01;;;;;;;0.68;0.68;;;1.50;97.70;;;;;;4957372;28;20205;-69
2022/12/04 04:29:26;;;;;;;0.40;0.40;;;1.60;97.70;;;;;;4957214;28;20206;-69
2022/12/04 04:31:59;;;;;;;3.17;2.97;;;1.60;97.70;;;;;;4957326;28;20178;-69
2022/12/04 04:34:33;;;;;;;0.85;0.85;;;1.50;97.60;;;;;;4957135;28;20169;-69
2022/12/04 04:37:29;;;;;;;1.35;1.25;;;1.50;97.60;;;;;;4956769;28;20199;-69
2022/12/04 04:40:04;;;;;;;0.93;0.93;;;1.50;97.90;;;;;;4957109;28;20179;-69
2022/12/04 04:42:55;;;;;;;0.40;0.40;;;1.50;97.90;;;;;;4957158;28;20230;-69
2022/12/04 04:45:32;;;;;;;0.30;0.30;;;1.50;97.90;;;;;;4956862;28;20183;-69
2022/12/04 04:48:05;;;;;;;1.25;1.25;;;1.70;97.90;;;;;;4956890;28;20201;-69
2022/12/04 04:50:32;;;;;;;1.77;1.08;;;1.70;97.50;;;;;;4956879;28;20198;-69
2022/12/04 04:53:04;;;;;;;0.40;0.40;;;1.70;97.40;;;;;;4957009;28;20570;-69
2022/12/04 04:55:33;;;;;;;0.40;0.40;;;1.70;97.60;;;;;;4955571;29;20664;-69
2022/12/04 04:58:11;;;;;;;0.60;0.60;;;1.70;97.60;;;;;;4956613;28;20195;-69
2022/12/04 05:00:38;;;;;;;0.60;0.60;;;1.50;97.50;;;;;;4956911;28;20224;-68
2022/12/04 05:03:04;;;;;;;5.15;4.65;;;1.40;97.60;;;;;;4955350;29;20277;-68
2022/12/04 05:05:30;;;;;;;2.33;2.00;;;1.40;97.80;;;;;;4956367;29;20688;-69
2022/12/04 05:07:55;;;;;;;0.40;0.40;;;1.50;97.70;;;;;;4956521;28;20293;-68
2022/12/04 05:10:21;;;;;;;0.40;0.40;;;1.60;97.70;;;;;;4956603;28;20237;-68
2022/12/04 05:12:46;;;;;;;0.30;0.30;;;1.70;97.70;;;;;;4956402;28;20176;-69
2022/12/04 05:15:12;;;;;;;1.50;1.40;;;1.80;97.50;;;;;;4956273;28;20172;-69
2022/12/04 05:17:38;;;;;;;0.50;0.50;;;1.70;97.40;;;;;;4955075;28;20677;-68
2022/12/04 05:20:06;;;;;;;0.50;0.50;;;1.80;97.50;;;;;;4956421;28;20266;-69
2022/12/04 05:22:34;;;;;;;0.93;0.93;;;1.80;97.50;;;;;;4956505;28;20203;-69
2022/12/04 05:25:00;;;;;;;0.80;0.80;;;1.80;97.20;;;;;;4956300;28;20698;-69
2022/12/04 05:27:27;;;;;;;0.40;0.40;;;1.90;97.30;;;;;;4955050;28;20309;-68
2022/12/04 05:29:54;;;;;;;1.88;1.77;;;1.80;97.20;;;;;;4955167;28;20196;-68
2022/12/04 05:32:22;;;;;;;0.40;0.40;;;1.80;97.30;;;;;;4953898;29;20180;-69
2022/12/04 05:34:48;;;;;;;0.65;0.65;;;1.90;97.40;;;;;;4955073;28;20176;-69
2022/12/04 05:37:14;;;;;;;1.38;1.30;;;1.90;97.20;;;;;;4955039;28;20194;-69
2022/12/04 05:39:39;;;;;;;0.60;0.60;;;1.80;97.30;;;;;;4954997;28;20180;-69
2022/12/04 05:42:05;;;;;;;0.70;0.70;;;1.80;97.60;;;;;;4955545;28;20429;-69
2022/12/04 05:44:31;;;;;;;0.80;0.80;;;1.80;97.70;;;;;;4955851;28;20195;-69
2022/12/04 05:46:56;;;;;;;0.40;0.40;;;1.80;97.80;;;;;;4956027;28;20610;-69
2022/12/04 05:49:22;;;;;;;0.83;0.83;;;1.90;97.80;;;;;;4955671;28;20234;-69
2022/12/04 05:51:50;;;;;;;1.08;0.70;;;1.80;97.80;;;;;;4956020;28;20176;-69
2022/12/04 05:54:16;;;;;;;1.98;1.85;;;1.70;97.90;;;;;;4955588;28;20549;-69
2022/12/04 05:56:42;;;;;;;1.67;1.58;;;1.80;97.90;;;;;;4955911;28;20196;-69
2022/12/04 05:59:08;;;;;;;0.30;0.30;;;1.80;97.80;;;;;;4955804;28;20698;-69
2022/12/04 06:01:33;;;;;;;13.03;2.23;;;1.90;97.90;;;;;;4955972;28;20167;-69
2022/12/04 06:03:59;;;;;;;2.40;2.20;;;1.90;97.90;;;;;;4955779;28;20261;-68
2022/12/04 06:06:25;;;;;;;0.40;0.40;;;2.00;97.70;;;;;;4955567;28;20274;-69
2022/12/04 06:08:53;;;;;;;0.75;0.75;;;2.00;97.40;;;;;;4955479;28;20180;-69
2022/12/04 06:11:22;;;;;;;1.10;1.10;;;2.00;97.30;;;;;;4954288;29;20648;-68
2022/12/04 06:13:48;;;;;;;0.98;0.88;;;2.00;97.40;;;;;;4955582;28;20166;-69
2022/12/04 06:16:15;;;;;;;0.60;0.60;;;1.80;97.60;;;;;;4955414;28;20202;-69
2022/12/04 06:18:41;;;;;;;0.60;0.60;;;1.70;98.00;;;;;;4954243;29;20419;-69
2022/12/04 06:21:07;;;;;;;1.52;0.60;;;1.70;98.20;;;;;;4955637;28;20180;-69
2022/12/04 06:23:33;;;;;;;1.88;1.77;;;1.70;98.40;;;;;;4955636;28;20258;-69
2022/12/04 06:26:06;;;;;;;0.40;0.40;;;1.80;98.60;;;;;;4955249;28;20627;-68
2022/12/04 06:28:32;;;;;;;0.60;0.60;;;1.80;98.50;;;;;;4955393;28;20439;-68
2022/12/04 06:31:03;;;;;;;3.15;2.95;;;1.80;98.30;;;;;;4955418;28;20212;-68
2022/12/04 06:33:29;;;;;;;0.68;0.68;;;1.70;98.20;;;;;;4955502;28;20176;-68
2022/12/04 06:36:12;;;;;;;0.87;0.87;;;1.70;98.30;;;;;;4955073;28;20188;-68
2022/12/04 06:38:38;;;;;;;0.80;0.80;;;1.70;98.50;;;;;;4955890;28;20418;-69
2022/12/04 06:41:06;;;;;;;1.77;1.67;;;1.70;98.50;;;;;;4955662;28;20263;-69
2022/12/04 06:43:32;;;;;;;3.33;1.30;;;1.70;98.40;;;;;;4955473;28;20263;-69
2022/12/04 06:46:17;;;;;;;1.15;1.15;;;1.60;98.30;;;;;;4955222;28;20207;-68
2022/12/04 06:48:43;;;;;;;0.85;0.85;;;1.50;98.80;;;;;;4955483;28;20263;-68
2022/12/04 06:51:14;;;;;;;1.50;1.40;;;1.60;98.70;;;;;;4955159;28;20294;-69
2022/12/04 06:53:40;;;;;;;0.60;0.60;;;1.70;98.50;;;;;;4955183;28;20226;-69
2022/12/04 06:56:09;;;;;;;0.75;0.60;;;1.80;98.30;;;;;;4955163;28;20241;-68
2022/12/04 06:58:36;;;;;;;0.80;0.80;;;1.90;98.10;;;;;;4955100;29;20182;-69
2022/12/04 07:01:09;;;;;;;1.05;0.93;;;1.90;98.00;;;;;;4956149;28;20179;-69
2022/12/04 07:03:36;;;;;;;1.10;1.00;;;2.00;98.00;;;;;;4958893;28;20618;-68
2022/12/04 07:06:15;;;;;;;1.35;1.33;;;2.00;98.00;;;;;;4958731;28;20200;-67
2022/12/04 07:08:41;;;;;;;1.40;1.30;;;1.90;98.20;;;;;;4959262;28;20195;-69
2022/12/04 07:11:07;;;;;;;0.60;0.60;;;1.90;98.40;;;;;;4958626;28;20571;-69
2022/12/04 07:13:33;;;;;;;1.70;1.43;;;2.00;98.50;;;;;;4958660;28;20168;-68
2022/12/04 07:16:00;;;;;;;0.67;0.53;;;2.10;98.60;;;;;;4958433;28;20951;-69
2022/12/04 07:18:27;;;;;;;2.03;1.02;;;2.10;98.60;;;;;;4958542;28;20191;-69
2022/12/04 07:20:53;;;;;;;1.00;1.00;;;2.10;98.50;;;;;;4958659;28;20698;-68
2022/12/04 07:23:19;;;;;;;0.60;0.60;;;2.10;98.50;;;;;;4957406;29;20321;-69
2022/12/04 07:25:44;;;;;;;0.40;0.40;;;2.20;98.60;;;;;;4958222;28;20267;-68
2022/12/04 07:28:10;;;;;;;0.70;0.70;;;2.20;97.90;;;;;;4958324;28;20230;-68
2022/12/04 07:30:37;;;;;;;1.70;0.60;;;2.30;98.00;;;;;;4958346;28;20675;-68
2022/12/04 07:33:03;;;;;;;0.35;0.35;;;2.30;98.10;;;;;;4958429;28;20175;-68
2022/12/04 07:35:29;;;;;;;4.30;4.10;;;2.30;98.00;;;;;;4958085;28;20180;-69
2022/12/04 07:37:54;;;;;;;1.63;1.23;;;2.40;98.20;;;;;;4958221;28;20220;-69
2022/12/04 07:40:20;;;;;;;2.67;2.47;;;2.40;97.90;;;;;;4958401;28;20639;-69
2022/12/04 07:42:46;;;;;;;0.40;0.40;;;2.50;97.80;;;;;;4958426;28;20174;-69
2022/12/04 07:45:11;;;;;;;0.60;0.60;;;2.50;97.60;;;;;;4958036;28;20180;-69
2022/12/04 07:47:37;;;;;;;3.23;1.80;;;2.60;97.60;;;;;;4957938;28;20204;-68
2022/12/04 07:50:04;;;;;;;0.30;0.30;;;2.70;97.70;;;;;;4956713;29;20206;-69
2022/12/04 07:52:30;;;;;;;0.93;0.93;;;2.60;97.60;;;;;;4958002;28;20407;-69
2022/12/04 07:54:56;;;;;;;0.55;0.55;;;2.70;97.70;;;;;;4957878;28;20594;-68
2022/12/04 07:57:22;;;;;;;2.15;1.70;;;2.60;97.70;;;;;;4958044;28;20214;-69
2022/12/04 07:59:47;;;;;;;0.77;0.77;;;2.80;97.80;;;;;;4957919;28;20177;-68
2022/12/04 08:02:13;;;;;;;1.03;1.03;;;2.90;97.70;;;;;;4957762;28;20551;-68
2022/12/04 08:04:39;;;;;;;0.40;0.40;;;3.00;97.50;;;;;;4957796;28;20257;-69
2022/12/04 08:07:04;;;;;;;1.43;1.43;;;3.10;97.40;;;;;;4957674;28;20193;-68
2022/12/04 08:09:31;;;;;;;1.93;1.67;;;3.10;97.20;;;;;;4957563;28;20583;-67
2022/12/04 08:11:56;;;;;;;0.60;0.60;;;3.30;96.70;;;;;;4957468;28;20219;-69
2022/12/04 08:14:22;;;;;;;1.13;0.70;;;3.30;96.40;;;;;;4956061;29;20581;-69
2022/12/04 08:16:48;;;;;;;3.70;1.83;;;3.30;96.40;;;;;;4957748;28;20200;-69
2022/12/04 08:19:14;;;;;;;1.25;1.15;;;3.30;96.30;;;;;;4957552;28;20193;-68
2022/12/04 08:21:39;;;;;;;4.60;4.40;;;3.30;96.30;;;;;;4958046;28;20182;-69
2022/12/04 08:24:05;;;;;;;1.80;1.70;;;3.20;96.30;;;;;;4956935;28;20169;-69
2022/12/04 08:26:32;;;;;;;1.47;1.37;;;3.20;96.40;;;;;;4957202;28;20190;-69
2022/12/04 08:29:00;;;;;;;0.40;0.40;;;3.20;96.40;;;;;;4956834;28;20253;-69
2022/12/04 08:31:28;;;;;;;3.10;3.00;;;3.30;96.50;;;;;;4957445;28;20180;-69
2022/12/04 08:33:56;;;;;;;1.70;0.93;;;3.40;96.70;;;;;;4956965;28;20574;-69
2022/12/04 08:36:22;;;;;;;2.22;1.90;;;3.50;96.70;;;;;;4957096;28;20185;-69
2022/12/04 08:38:48;;;;;;;2.38;2.17;;;3.50;96.30;;;;;;4956869;28;20173;-68
2022/12/04 08:41:17;;;;;;;1.55;1.45;;;3.50;96.10;;;;;;4956741;28;20174;-69
2022/12/04 08:43:43;;;;;;;4.72;2.78;;;3.50;96.00;;;;;;4957272;28;20166;-69
2022/12/04 08:46:11;;;;;;;0.60;0.60;;;3.40;95.80;;;;;;4956927;28;20570;-69
2022/12/04 08:48:37;;;;;;;1.40;1.40;;;3.50;96.10;;;;;;4956882;28;20173;-69
2022/12/04 08:51:06;;;;;;;1.25;1.25;;;3.50;96.10;;;;;;4957033;28;20237;-69
2022/12/04 08:53:32;;;;;;;3.60;2.50;;;3.60;96.10;;;;;;4955747;29;20233;-69
2022/12/04 08:56:00;;;;;;;1.33;1.23;;;3.60;96.20;;;;;;4956679;28;20592;-69
2022/12/04 08:58:25;;;;;;;0.60;0.60;;;3.70;96.20;;;;;;4956715;28;20409;-68
2022/12/04 09:00:51;;;;;;;2.60;2.50;;;3.80;96.20;;;;;;4956694;28;20189;-69
2022/12/04 09:03:18;;;;;;;0.80;0.73;;;3.80;95.80;;;;;;4956185;28;20180;-69
2022/12/04 09:05:45;;;;;;;2.20;2.10;;;3.80;95.90;;;;;;4956484;28;20173;-69
2022/12/04 09:08:11;;;;;;;0.90;0.90;;;3.90;95.90;;;;;;4956126;28;20173;-69
2022/12/04 09:10:37;;;;;;;0.65;0.65;;;3.80;95.60;;;;;;4956476;28;20693;-68
2022/12/04 09:13:03;;;;;;;2.20;1.03;;;3.60;95.50;;;;;;4956857;28;20181;-69
2022/12/04 09:15:30;;;;;;;1.10;1.10;;;3.50;95.60;;;;;;4956407;28;20627;-68
2022/12/04 09:17:55;;;;;;;4.47;2.85;;;3.50;95.80;;;;;;4956181;28;20197;-68
2022/12/04 09:20:21;;;;;;;1.17;1.07;;;3.50;96.10;;;;;;4956571;28;20256;-69
2022/12/04 09:22:47;;;;;;;4.33;1.70;;;3.70;96.20;;;;;;4956306;28;20181;-69
2022/12/04 09:25:12;;;;;;;0.97;0.97;;;3.80;96.30;;;;;;4955636;28;20252;-68
2022/12/04 09:27:42;;;;;;;1.03;0.73;;;3.70;96.10;;;;;;4956074;28;20209;-68
2022/12/04 09:30:09;;;;;;;5.07;1.65;;;3.50;96.00;;;;;;4956269;28;20193;-69
2022/12/04 09:32:35;;;;;;;0.50;0.50;;;3.30;96.40;;;;;;4956291;28;20205;-69
2022/12/04 09:35:01;;;;;;;1.37;1.33;;;3.20;96.40;;;;;;4955942;28;20197;-69
2022/12/04 09:37:26;;;;;;;0.40;0.40;;;3.20;96.40;;;;;;4954789;28;20766;-68
2022/12/04 09:39:52;;;;;;;1.53;1.50;;;3.30;96.60;;;;;;4956081;28;20174;-69
2022/12/04 09:42:34;;;;;;;0.93;0.90;;;3.50;96.80;;;;;;4956119;28;20256;-69
2022/12/04 09:45:22;;;;;;;1.77;1.67;;;3.60;96.50;;;;;;4955920;28;20174;-69
2022/12/04 09:47:53;;;;;;;2.05;1.95;;;3.70;96.30;;;;;;4955841;28;20197;-68
2022/12/04 09:50:33;;;;;;;1.60;1.60;;;3.70;96.20;;;;;;4955966;28;20248;-68
2022/12/04 09:53:09;;;;;;;0.60;0.60;;;3.80;96.20;;;;;;4955954;28;20169;-69
2022/12/04 09:55:52;;;;;;;10.07;4.57;;;3.90;96.00;;;;;;4955676;28;20256;-67
2022/12/04 09:58:22;;;;;;;2.05;1.95;;;4.10;96.20;;;;;;4955753;28;20158;-68
2022/12/04 10:00:50;;;;;;;0.90;0.90;;;4.10;96.00;;;;;;4955755;28;20689;-68
2022/12/04 10:03:19;;;;;;;2.10;2.00;;;4.10;96.00;;;;;;4955951;28;20592;-68
2022/12/04 10:05:59;;;;;;;0.40;0.40;;;4.20;96.00;;;;;;4955557;28;20173;-67
2022/12/04 10:08:30;;;;;;;0.95;0.95;;;4.10;95.80;;;;;;4955530;28;20535;-67
2022/12/04 10:10:59;;;;;;;3.75;3.55;;;4.00;95.70;;;;;;4955145;28;20197;-68
2022/12/04 10:13:53;;;;;;;3.25;3.08;;;4.10;95.80;;;;;;4955219;28;20196;-67
2022/12/04 10:16:29;;;;;;;5.55;1.67;;;4.20;96.00;;;;;;4955256;28;20198;-68
2022/12/04 10:18:57;;;;;;;0.50;0.50;;;4.20;96.20;;;;;;4955720;28;20161;-68
2022/12/04 10:21:44;;;;;;;4.45;2.55;;;4.30;96.30;;;;;;4955681;28;20181;-67
2022/12/04 10:24:40;;;;;;;0.50;0.50;;;4.30;96.10;;;;;;4955507;28;20181;-68
2022/12/04 10:27:52;;;;;;;2.28;2.17;;;4.20;96.10;;;;;;4953963;28;20760;-67
2022/12/04 10:30:36;;;;;;;5.10;1.48;;;4.20;96.30;;;;;;4937680;29;20622;-67
2022/12/04 10:33:39;;;;;;;0.40;0.40;;;4.30;96.30;;;;;;4955580;28;20224;-68
2022/12/04 10:36:13;;;;;;;0.80;0.80;;;4.40;96.30;;;;;;4954908;28;20189;-68
2022/12/04 10:38:43;;;;;;;1.23;1.23;;;4.40;96.50;;;;;;4959761;28;20182;-67
2022/12/04 10:41:32;;;;;;;0.50;0.50;;;4.40;96.70;;;;;;4959163;28;20793;-68
2022/12/04 10:43:58;;;;;;;1.70;1.60;;;4.40;96.70;;;;;;4959865;29;20265;-68
2022/12/04 10:46:34;;;;;;;1.63;1.37;;;4.50;96.80;;;;;;4958540;28;20244;-68
2022/12/04 10:49:38;;;;;;;0.85;0.85;;;4.50;96.80;;;;;;4959066;28;20173;-68
2022/12/04 10:52:05;;;;;;;1.92;1.55;;;4.50;96.80;;;;;;4959183;28;20272;-68
2022/12/04 10:54:39;;;;;;;0.93;0.93;;;4.50;96.70;;;;;;4958816;28;20669;-68
2022/12/04 10:57:10;;;;;;;2.95;1.98;;;4.50;96.50;;;;;;4958881;28;20248;-68
2022/12/04 10:59:50;;;;;;;1.92;1.83;;;4.60;96.80;;;;;;4958994;28;20643;-68
2022/12/04 11:02:16;;;;;;;1.55;1.55;;;4.60;96.60;;;;;;4959058;28;20666;-67
2022/12/04 11:04:42;;;;;;;4.70;4.50;;;4.60;96.80;;;;;;4958770;28;20170;-68
2022/12/04 11:07:25;;;;;;;2.63;2.53;;;4.50;96.40;;;;;;4958728;28;20735;-68
2022/12/04 11:10:03;;;;;;;4.85;4.45;;;4.50;96.50;;;;;;4957565;29;20300;-68
2022/12/04 11:12:30;;;;;;;4.10;3.80;;;4.40;96.80;;;;;;4957449;29;20173;-68
2022/12/04 11:15:11;;;;;;;1.52;1.45;;;4.50;97.00;;;;;;4958605;28;20177;-68
2022/12/04 11:17:39;;;;;;;2.88;2.67;;;4.50;97.10;;;;;;4958166;28;20615;-68
2022/12/04 11:20:16;;;;;;;3.10;2.97;;;4.60;97.30;;;;;;4958588;28;20173;-67
2022/12/04 11:22:57;;;;;;;5.22;4.75;;;4.50;97.50;;;;;;4957484;29;20208;-68
2022/12/04 11:25:34;;;;;;;1.23;1.10;;;4.50;97.70;;;;;;4957112;29;20556;-68
2022/12/04 11:28:02;;;;;;;3.90;3.70;;;4.50;98.10;;;;;;4958484;28;20263;-67
2022/12/04 11:30:36;;;;;;;2.67;2.58;;;4.60;98.20;;;;;;4956816;29;20621;-68
2022/12/04 11:33:13;;;;;;;3.03;2.42;;;4.80;98.20;;;;;;4958480;28;20165;-68
2022/12/04 11:35:39;;;;;;;3.08;2.65;;;4.90;98.10;;;;;;4958238;28;20224;-67
2022/12/04 11:38:16;;;;;;;2.30;2.20;;;5.00;98.20;;;;;;4958189;28;20768;-68
2022/12/04 11:40:55;;;;;;;1.27;1.27;;;5.00;98.10;;;;;;4958287;28;20419;-68
2022/12/04 11:43:27;;;;;;;1.17;1.17;;;5.10;97.90;;;;;;4956997;29;20276;-68
2022/12/04 11:46:02;;;;;;;1.27;1.25;;;5.00;97.80;;;;;;4956872;28;20183;-68
2022/12/04 11:48:41;;;;;;;3.70;2.92;;;4.90;98.30;;;;;;4957526;28;20170;-68
2022/12/04 11:51:34;;;;;;;0.80;0.80;;;4.80;98.70;;;;;;4956757;29;20201;-67
2022/12/04 11:54:18;;;;;;;5.53;2.28;;;4.90;98.80;;;;;;4958137;28;20173;-68
2022/12/04 11:57:02;;;;;;;0.60;0.60;;;5.00;98.50;;;;;;4957912;28;20277;-68
2022/12/04 11:59:42;;;;;;;2.28;2.17;;;5.10;98.40;;;;;;4957947;28;20174;-68
2022/12/04 12:02:18;;;;;;;1.45;1.42;;;5.10;98.50;;;;;;4957800;28;20240;-68
2022/12/04 12:05:13;;;;;;;1.25;1.25;;;5.20;98.50;;;;;;4957517;28;20193;-67
2022/12/04 12:07:44;;;;;;;1.90;1.80;;;5.20;98.40;;;;;;4957796;28;20203;-67
2022/12/04 12:10:26;;;;;;;6.40;1.45;;;5.20;98.50;;;;;;4957679;28;20269;-68
2022/12/04 12:13:27;;;;;;;3.08;2.22;;;5.30;98.50;;;;;;4957825;28;20166;-67
2022/12/04 12:16:08;;;;;;;2.63;2.42;;;5.30;98.50;;;;;;4925278;28;20181;-68
2022/12/04 12:18:58;;;;;;;6.05;3.10;;;5.40;98.30;;;;;;4956370;29;20554;-68
2022/12/04 12:21:43;;;;;;;2.92;2.47;;;5.40;98.20;;;;;;4956305;29;20556;-68
2022/12/04 12:24:15;;;;;;;3.13;2.45;;;5.30;98.10;;;;;;4957308;28;20181;-68
2022/12/04 12:26:49;;;;;;;1.80;1.73;;;5.20;98.30;;;;;;4957100;28;20189;-68
2022/12/04 12:29:34;;;;;;;1.38;1.35;;;5.20;98.60;;;;;;4957374;28;20165;-68
2022/12/04 12:32:36;;;;;;;2.80;2.63;;;5.10;98.60;;;;;;4957373;28;20177;-68
2022/12/04 12:35:04;;;;;;;3.10;2.78;;;5.10;99.00;;;;;;4957302;28;20169;-68
2022/12/04 12:37:32;;;;;;;3.70;2.45;;;5.20;99.10;;;;;;4957189;28;20198;-68
2022/12/04 12:40:06;;;;;;;0.75;0.75;;;5.30;99.10;;;;;;4957300;28;20173;-67
2022/12/04 12:42:46;;;;;;;1.60;1.50;;;5.20;98.80;;;;;;4956979;28;20236;-67
2022/12/04 12:45:29;;;;;;;1.40;1.30;;;5.10;98.70;;;;;;4956688;28;20193;-67
2022/12/04 12:48:01;;;;;;;7.80;1.33;;;4.80;98.80;;;;;;4956889;28;20197;-67
2022/12/04 12:50:55;;;;;;;4.13;2.85;;;4.70;99.10;;;;;;4957325;28;20197;-69
2022/12/04 12:53:28;;;;;;;0.40;0.40;;;4.60;99.20;;;;;;4954041;29;20670;-67
2022/12/04 12:56:00;;;;;;;1.83;1.48;;;4.70;99.60;;;;;;4956831;28;20516;-67
2022/12/04 12:58:39;;;;;;;2.05;1.95;;;4.70;99.60;;;;;;4956445;28;20174;-69
2022/12/04 13:01:19;;;;;;;1.70;1.60;;;4.70;99.90;;;;;;4957335;28;20227;-69
2022/12/04 13:04:02;;;;;;;0.50;0.50;;;4.70;99.90;;;;;;4957022;28;20169;-69
2022/12/04 13:06:39;;;;;;;1.30;1.20;;;4.90;99.80;;;;;;4956837;28;20623;-69
2022/12/04 13:09:31;;;;;;;5.25;3.38;;;5.00;99.70;;;;;;4956819;28;20169;-68
2022/12/04 13:12:05;;;;;;;3.85;3.65;;;5.10;99.20;;;;;;4954889;29;20535;-69
2022/12/04 13:14:30;;;;;;;0.95;0.82;;;5.20;99.00;;;;;;4956640;28;20205;-68
2022/12/04 13:17:19;;;;;;;1.70;1.70;;;5.20;98.80;;;;;;4956781;28;20234;-69
2022/12/04 13:19:52;;;;;;;1.83;1.73;;;5.20;98.50;;;;;;4956729;28;20178;-68
2022/12/04 13:22:33;;;;;;;0.50;0.50;;;5.20;98.60;;;;;;4956637;28;20158;-70
2022/12/04 13:25:27;;;;;;;1.83;1.73;;;5.10;98.70;;;;;;4956218;28;20184;-69
2022/12/04 13:27:55;;;;;;;2.47;1.52;;;5.10;98.90;;;;;;4956204;28;20552;-70
2022/12/04 13:30:38;;;;;;;0.85;0.85;;;5.10;99.10;;;;;;4956764;28;20261;-70
2022/12/04 13:33:25;;;;;;;2.78;2.67;;;5.10;99.20;;;;;;4956100;28;20205;-68
2022/12/04 13:36:25;;;;;;;4.40;4.20;;;5.10;99.20;;;;;;4955616;28;20540;-68